createdAt,value
2023-01-29T00:00:18.316Z,100055.19
2023-01-29T00:02:20.786Z,100050.75
2023-01-29T00:04:23.240Z,100059.69
2023-01-29T00:06:28.573Z,100052.59
2023-01-29T00:08:32.689Z,100058.88
2023-01-29T00:10:34.856Z,100051.69
2023-01-29T00:12:37.106Z,100054.31
2023-01-29T00:14:39.363Z,100061.44
2023-01-29T00:16:41.577Z,100060.50
2023-01-29T00:18:44.087Z,100067.66
2023-01-29T00:20:46.512Z,100058.78
2023-01-29T00:22:49.132Z,100063.22
2023-01-29T00:24:51.273Z,100063.31
2023-01-29T00:26:53.722Z,100057.94
2023-01-29T00:29:00.799Z,100064.16
2023-01-29T00:31:15.365Z,100070.38
2023-01-29T00:33:19.342Z,100068.59
2023-01-29T00:35:21.782Z,100072.13
2023-01-29T00:37:24.033Z,100071.16
2023-01-29T00:39:31.418Z,100075.66
2023-01-29T00:42:00.041Z,100073.03
2023-01-29T00:44:20.384Z,100073.91
2023-01-29T00:46:22.542Z,100069.50
2023-01-29T00:48:24.881Z,100077.56
2023-01-29T00:50:26.948Z,100077.53
2023-01-29T00:52:30.086Z,100079.31
2023-01-29T00:54:33.195Z,100075.81
2023-01-29T00:56:37.459Z,100077.56
2023-01-29T00:58:39.859Z,100080.25
2023-01-29T01:00:44.265Z,100086.47
2023-01-29T01:03:05.192Z,100082.06
2023-01-29T01:05:14.274Z,100086.47
2023-01-29T01:07:18.149Z,100083.78
2023-01-29T01:09:38.794Z,100088.19
2023-01-29T01:11:40.877Z,100090.88
2023-01-29T01:13:43.351Z,100086.41
2023-01-29T01:15:45.512Z,100085.56
2023-01-29T01:17:49.218Z,100092.63
2023-01-29T01:19:51.596Z,100089.09
2023-01-29T01:21:53.930Z,100088.22
2023-01-29T01:23:56.394Z,100082.91
2023-01-29T01:26:01.119Z,100079.38
2023-01-29T01:28:03.294Z,100086.50
2023-01-29T01:30:06.052Z,100083.81
2023-01-29T01:32:08.392Z,100090.06
2023-01-29T01:34:10.775Z,100082.09
2023-01-29T01:36:14.083Z,100087.38
2023-01-29T01:38:16.232Z,100089.13
2023-01-29T01:40:21.168Z,100087.34
2023-01-29T01:42:24.290Z,100082.94
2023-01-29T01:44:53.650Z,100082.06
2023-01-29T01:46:56.038Z,100069.66
2023-01-29T01:49:04.462Z,100082.09
2023-01-29T01:51:07.206Z,100081.22
2023-01-29T01:53:19.862Z,100089.19
2023-01-29T01:55:25.720Z,100092.75
2023-01-29T01:57:30.627Z,100096.28
2023-01-29T01:59:34.210Z,100090.94
2023-01-29T02:01:38.419Z,100096.25
2023-01-29T02:04:13.486Z,100105.16
2023-01-29T02:06:34.786Z,100108.69
2023-01-29T02:09:21.082Z,100103.41
2023-01-29T02:11:24.304Z,100117.59
2023-01-29T02:13:27.266Z,100120.22
2023-01-29T02:15:29.816Z,100119.38
2023-01-29T02:17:32.427Z,100115.84
2023-01-29T02:19:46.783Z,100124.75
2023-01-29T02:22:20.975Z,100119.44
2023-01-29T02:24:44.789Z,100120.31
2023-01-29T02:27:37.844Z,100129.19
2023-01-29T02:29:50.947Z,100133.63
2023-01-29T02:32:05.110Z,100133.63
2023-01-29T02:34:18.282Z,100134.50
2023-01-29T02:36:43.139Z,100138.94
2023-01-29T02:39:02.624Z,100143.44
2023-01-29T02:41:14.424Z,100151.41
2023-01-29T02:43:24.583Z,100149.63
2023-01-29T02:45:35.576Z,100147.84
2023-01-29T02:47:50.414Z,100155.78
2023-01-29T02:50:14.531Z,100160.22
2023-01-29T02:55:46.643Z,100160.25
2023-01-29T02:57:51.173Z,100162.88
2023-01-29T02:59:59.056Z,100163.81
2023-01-29T03:02:10.607Z,100167.38
2023-01-29T03:04:20.627Z,100170.88
2023-01-29T03:06:29.822Z,100167.31
2023-01-29T03:08:45.794Z,100162.91
2023-01-29T03:10:59.753Z,100172.66
2023-01-29T03:13:08.575Z,100167.34
2023-01-29T03:15:18.369Z,100171.81
2023-01-29T03:17:44.489Z,100171.78
2023-01-29T03:19:48.038Z,100177.09
2023-01-29T03:22:04.338Z,100170.03
2023-01-29T03:28:18.508Z,100171.78
2023-01-29T03:30:43.978Z,100177.16
2023-01-29T03:33:11.540Z,100174.50
2023-01-29T03:35:21.933Z,100176.25
2023-01-29T03:37:35.101Z,100167.34
2023-01-29T03:39:43.231Z,100170.00
2023-01-29T03:41:47.747Z,100167.38
2023-01-29T03:44:14.105Z,100164.75
2023-01-29T03:46:41.896Z,100170.97
2023-01-29T03:49:22.019Z,100173.63
2023-01-29T03:51:40.415Z,100162.97
2023-01-29T03:53:48.918Z,100165.63
2023-01-29T03:56:07.393Z,100170.06
2023-01-29T03:58:33.791Z,100170.09
2023-01-29T04:00:45.456Z,100173.63
2023-01-29T04:03:11.145Z,100173.66
2023-01-29T04:05:20.651Z,100185.16
2023-01-29T04:07:46.345Z,100178.06
2023-01-29T04:10:01.005Z,100186.03
2023-01-29T04:12:10.674Z,100195.81
2023-01-29T04:14:17.990Z,100190.47
2023-01-29T04:16:27.410Z,100194.91
2023-01-29T04:19:01.789Z,100196.69
2023-01-29T04:21:13.314Z,100187.81
2023-01-29T04:23:25.935Z,100187.84
2023-01-29T04:25:43.655Z,100194.91
2023-01-29T04:28:43.541Z,100197.56
2023-01-29T04:30:46.219Z,100202.03
2023-01-29T04:33:08.464Z,100198.47
2023-01-29T04:36:20.576Z,100206.44
2023-01-29T04:38:25.871Z,100199.34
2023-01-29T04:40:40.657Z,100204.69
2023-01-29T04:43:09.310Z,100210.88
2023-01-29T04:45:59.201Z,100206.44
2023-01-29T04:48:26.082Z,100210.00
2023-01-29T04:50:47.445Z,100211.75
2023-01-29T04:53:04.913Z,100205.56
2023-01-29T04:55:36.200Z,100204.69
2023-01-29T04:57:42.551Z,100205.56
2023-01-29T04:59:56.133Z,100202.00
2023-01-29T05:02:02.544Z,100205.53
2023-01-29T05:04:14.697Z,100203.75
2023-01-29T05:06:19.532Z,100206.44
2023-01-29T05:08:25.514Z,100198.47
2023-01-29T05:10:28.228Z,100202.03
2023-01-29T05:12:31.472Z,100202.88
2023-01-29T05:14:35.365Z,100206.44
2023-01-29T05:16:47.735Z,100212.63
2023-01-29T05:18:50.286Z,100212.63
2023-01-29T05:20:56.813Z,100211.75
2023-01-29T05:22:59.603Z,100216.16
2023-01-29T05:25:01.898Z,100217.94
2023-01-29T05:27:23.026Z,100223.25
2023-01-29T05:29:25.056Z,100219.72
2023-01-29T05:31:27.322Z,100224.13
2023-01-29T05:33:31.653Z,100225.03
2023-01-29T05:35:34.132Z,100223.25
2023-01-29T05:37:36.311Z,100223.25
2023-01-29T05:39:38.472Z,100224.16
2023-01-29T05:41:44.052Z,100218.81
2023-01-29T05:43:46.175Z,100223.25
2023-01-29T05:45:58.382Z,100228.56
2023-01-29T05:48:01.555Z,100233.88
2023-01-29T05:50:04.140Z,100239.22
2023-01-29T05:52:09.559Z,100230.34
2023-01-29T05:54:13.154Z,100238.31
2023-01-29T05:56:15.234Z,100232.13
2023-01-29T05:58:19.826Z,100233.00
2023-01-29T06:00:22.625Z,100226.78
2023-01-29T06:02:24.783Z,100235.66
2023-01-29T06:04:27.020Z,100237.44
2023-01-29T06:06:29.106Z,100242.75
2023-01-29T06:08:31.911Z,100240.97
2023-01-29T06:10:34.345Z,100236.53
2023-01-29T06:12:36.635Z,100234.75
2023-01-29T06:14:38.791Z,100232.13
2023-01-29T06:16:40.969Z,100235.69
2023-01-29T06:18:43.452Z,100237.44
2023-01-29T06:20:45.606Z,100227.69
2023-01-29T06:22:47.680Z,100228.59
2023-01-29T06:24:49.783Z,100231.25
2023-01-29T06:26:52.227Z,100231.25
2023-01-29T06:28:54.412Z,100233.91
2023-01-29T06:31:22.152Z,100237.44
2023-01-29T06:33:26.702Z,100233.91
2023-01-29T06:35:30.343Z,100225.94
2023-01-29T06:37:32.620Z,100230.38
2023-01-29T06:39:35.057Z,100238.34
2023-01-29T06:41:37.450Z,100245.41
2023-01-29T06:43:40.158Z,100255.16
2023-01-29T06:46:08.655Z,100256.94
2023-01-29T06:48:13.578Z,100256.03
2023-01-29T06:50:16.102Z,100250.75
2023-01-29T06:52:18.517Z,100256.97
2023-01-29T06:54:20.805Z,100258.72
2023-01-29T06:56:24.017Z,100263.13
2023-01-29T06:58:26.180Z,100263.16
2023-01-29T07:00:31.819Z,100258.72
2023-01-29T07:02:33.971Z,100261.38
2023-01-29T07:04:36.870Z,100264.03
2023-01-29T07:06:39.351Z,100267.59
2023-01-29T07:08:41.446Z,100253.38
2023-01-29T07:10:43.601Z,100258.72
2023-01-29T07:12:45.782Z,100267.59
2023-01-29T07:14:48.038Z,100264.03
2023-01-29T07:16:50.505Z,100272.91
2023-01-29T07:18:52.877Z,100269.34
2023-01-29T07:20:55.451Z,100265.81
2023-01-29T07:22:58.455Z,100272.88
2023-01-29T07:25:00.579Z,100275.56
2023-01-29T07:27:03.052Z,100267.59
2023-01-29T07:29:05.739Z,100268.47
2023-01-29T07:31:12.368Z,100275.56
2023-01-29T07:33:14.526Z,100281.75
2023-01-29T07:35:16.705Z,100287.97
2023-01-29T07:37:18.989Z,100279.09
2023-01-29T07:39:21.340Z,100287.06
2023-01-29T07:41:25.695Z,100288.88
2023-01-29T07:43:28.025Z,100285.31
2023-01-29T07:45:31.015Z,100280.88
2023-01-29T07:47:33.281Z,100287.97
2023-01-29T07:49:35.402Z,100283.56
2023-01-29T07:51:40.220Z,100290.63
2023-01-29T07:53:44.689Z,100295.06
2023-01-29T07:55:46.799Z,100288.84
2023-01-29T07:57:55.211Z,100282.66
2023-01-29T07:59:57.699Z,100286.19
2023-01-29T08:02:03.181Z,100283.53
2023-01-29T08:04:05.441Z,100289.72
2023-01-29T08:06:07.746Z,100286.19
2023-01-29T08:08:11.261Z,100283.53
2023-01-29T08:10:13.503Z,100274.66
2023-01-29T08:12:15.732Z,100276.44
2023-01-29T08:14:17.835Z,100286.19
2023-01-29T08:16:20.370Z,100282.66
2023-01-29T08:18:23.039Z,100293.28
2023-01-29T08:20:26.104Z,100281.75
2023-01-29T08:22:28.190Z,100278.19
2023-01-29T08:24:41.595Z,100284.38
2023-01-29T08:26:52.898Z,100283.50
2023-01-29T08:28:59.446Z,100291.50
2023-01-29T08:31:02.303Z,100284.41
2023-01-29T08:33:05.191Z,100299.50
2023-01-29T08:35:07.856Z,100300.34
2023-01-29T08:37:09.978Z,100304.78
2023-01-29T08:39:12.432Z,100299.47
2023-01-29T08:41:14.720Z,100295.03
2023-01-29T08:43:18.003Z,100291.47
2023-01-29T08:45:20.314Z,100296.81
2023-01-29T08:47:23.004Z,100291.50
2023-01-29T08:49:25.169Z,100297.69
2023-01-29T08:51:27.277Z,100291.50
2023-01-29T08:53:31.881Z,100289.72
2023-01-29T08:55:39.810Z,100289.72
2023-01-29T08:57:42.027Z,100295.91
2023-01-29T08:59:44.038Z,100302.13
2023-01-29T09:01:46.160Z,100300.31
2023-01-29T09:03:48.021Z,100295.91
2023-01-29T09:05:50.191Z,100295.91
2023-01-29T09:07:54.174Z,100299.47
2023-01-29T09:09:56.576Z,100298.53
2023-01-29T09:11:59.172Z,100302.09
2023-01-29T09:14:01.322Z,100304.75
2023-01-29T09:16:04.985Z,100305.66
2023-01-29T09:18:07.276Z,100307.41
2023-01-29T09:20:10.267Z,100294.97
2023-01-29T09:22:12.457Z,100294.13
2023-01-29T09:24:14.578Z,100297.66
2023-01-29T09:26:16.924Z,100301.22
2023-01-29T09:28:18.888Z,100306.53
2023-01-29T09:30:46.003Z,100308.31
2023-01-29T09:32:54.659Z,100299.41
2023-01-29T09:34:57.881Z,100309.19
2023-01-29T09:36:59.911Z,100314.50
2023-01-29T09:39:02.035Z,100312.72
2023-01-29T09:41:04.010Z,100313.66
2023-01-29T09:43:17.057Z,100305.66
2023-01-29T09:45:25.786Z,100303.88
2023-01-29T09:47:30.049Z,100310.06
2023-01-29T09:49:42.478Z,100301.19
2023-01-29T09:51:53.415Z,100312.72
2023-01-29T09:54:07.508Z,100305.59
2023-01-29T09:56:17.289Z,100311.81
2023-01-29T09:58:24.717Z,100315.38
2023-01-29T10:00:32.141Z,100318.03
2023-01-29T10:02:52.336Z,100325.16
2023-01-29T10:05:28.351Z,100320.72
2023-01-29T10:07:58.452Z,100324.25
2023-01-29T10:10:11.082Z,100328.66
2023-01-29T10:12:40.715Z,100323.34
2023-01-29T10:15:20.130Z,100324.25
2023-01-29T10:17:30.919Z,100322.44
2023-01-29T10:19:55.188Z,100322.44
2023-01-29T10:22:51.568Z,100319.78
2023-01-29T10:25:03.310Z,100330.41
2023-01-29T10:27:17.247Z,100332.19
2023-01-29T10:29:22.220Z,100339.28
2023-01-29T10:31:33.461Z,100332.19
2023-01-29T10:34:01.464Z,100332.19
2023-01-29T10:36:09.949Z,100337.53
2023-01-29T10:38:38.880Z,100341.97
2023-01-29T10:40:49.736Z,100336.66
2023-01-29T10:43:04.421Z,100340.22
2023-01-29T10:45:35.801Z,100333.09
2023-01-29T10:47:55.628Z,100332.22
2023-01-29T10:50:34.860Z,100336.66
2023-01-29T10:53:05.047Z,100325.97
2023-01-29T10:55:29.577Z,100323.31
2023-01-29T10:57:49.997Z,100320.63
2023-01-29T11:00:33.791Z,100326.91
2023-01-29T11:02:36.114Z,100323.31
2023-01-29T11:04:39.320Z,100318.88
2023-01-29T11:06:41.803Z,100317.09
2023-01-29T11:08:54.543Z,100315.31
2023-01-29T11:11:13.072Z,100320.69
2023-01-29T11:13:16.561Z,100308.22
2023-01-29T11:15:21.098Z,100295.78
2023-01-29T11:17:24.929Z,100297.56
2023-01-29T11:19:42.127Z,100302.88
2023-01-29T11:21:59.228Z,100296.69
2023-01-29T11:24:08.726Z,100295.81
2023-01-29T11:26:22.136Z,100297.56
2023-01-29T11:28:40.375Z,100294.00
2023-01-29T11:30:42.989Z,100286.88
2023-01-29T11:32:45.144Z,100285.13
2023-01-29T11:34:57.315Z,100285.16
2023-01-29T11:37:04.633Z,100279.81
2023-01-29T11:39:15.826Z,100283.34
2023-01-29T11:41:22.465Z,100283.31
2023-01-29T11:43:27.549Z,100278.00
2023-01-29T11:45:32.510Z,100273.59
2023-01-29T11:47:34.804Z,100276.22
2023-01-29T11:49:38.454Z,100272.66
2023-01-29T11:51:41.688Z,100276.22
2023-01-29T11:53:49.984Z,100276.25
2023-01-29T11:55:52.474Z,100270.00
2023-01-29T11:58:05.121Z,100270.91
2023-01-29T12:00:20.716Z,100270.91
2023-01-29T12:02:38.986Z,100267.41
2023-01-29T12:04:41.479Z,100265.59
2023-01-29T12:06:45.590Z,100260.28
2023-01-29T12:08:56.555Z,100269.16
2023-01-29T12:11:10.840Z,100262.09
2023-01-29T12:13:12.937Z,100264.72
2023-01-29T12:15:19.767Z,100266.50
2023-01-29T12:17:26.949Z,100258.47
2023-01-29T12:19:29.122Z,100262.03
2023-01-29T12:21:41.184Z,100261.22
2023-01-29T12:24:04.426Z,100258.53
2023-01-29T12:26:16.688Z,100264.75
2023-01-29T12:28:34.237Z,100255.91
2023-01-29T12:31:15.861Z,100257.66
2023-01-29T12:33:27.269Z,100250.56
2023-01-29T12:35:33.533Z,100251.47
2023-01-29T12:37:49.956Z,100249.72
2023-01-29T12:39:52.728Z,100250.56
2023-01-29T12:42:01.692Z,100251.47
2023-01-29T12:44:21.184Z,100244.34
2023-01-29T12:46:29.593Z,100246.13
2023-01-29T12:48:42.569Z,100251.44
2023-01-29T12:50:47.309Z,100246.06
2023-01-29T12:52:49.296Z,100246.03
2023-01-29T12:55:01.936Z,100244.34
2023-01-29T12:57:10.394Z,100252.31
2023-01-29T12:59:29.364Z,100248.75
2023-01-29T13:01:38.865Z,100240.78
2023-01-29T13:03:51.924Z,100251.41
2023-01-29T13:05:59.460Z,100256.78
2023-01-29T13:08:17.865Z,100250.53
2023-01-29T13:10:26.957Z,100255.00
2023-01-29T13:12:29.632Z,100253.19
2023-01-29T13:14:51.762Z,100255.88
2023-01-29T13:17:02.036Z,100253.19
2023-01-29T13:19:07.687Z,100262.06
2023-01-29T13:21:16.345Z,100252.28
2023-01-29T13:23:28.671Z,100263.88
2023-01-29T13:25:30.830Z,100246.13
2023-01-29T13:27:35.474Z,100251.41
2023-01-29T13:29:38.174Z,100247.84
2023-01-29T13:31:41.425Z,100243.41
2023-01-29T13:33:44.116Z,100246.06
2023-01-29T13:35:46.515Z,100248.75
2023-01-29T13:37:52.053Z,100239.91
2023-01-29T13:39:55.800Z,100242.56
2023-01-29T13:42:00.532Z,100242.56
2023-01-29T13:44:07.865Z,100247.00
2023-01-29T13:46:14.559Z,100247.91
2023-01-29T13:48:36.995Z,100244.38
2023-01-29T13:50:42.517Z,100240.78
2023-01-29T13:52:52.248Z,100246.06
2023-01-29T13:55:07.563Z,100242.56
2023-01-29T13:57:55.714Z,100238.13
2023-01-29T13:59:58.944Z,100246.13
2023-01-29T14:02:05.465Z,100238.13
2023-01-29T14:04:19.813Z,100236.38
2023-01-29T14:06:45.001Z,100231.97
2023-01-29T14:08:47.651Z,100243.50
2023-01-29T14:11:15.547Z,100243.50
2023-01-29T14:13:21.506Z,100242.63
2023-01-29T14:15:27.175Z,100244.38
2023-01-29T14:17:29.659Z,100240.81
2023-01-29T14:19:31.951Z,100252.38
2023-01-29T14:21:37.873Z,100246.16
2023-01-29T14:23:48.724Z,100251.53
2023-01-29T14:25:51.409Z,100253.25
2023-01-29T14:27:53.576Z,100253.28
2023-01-29T14:30:02.616Z,100251.53
2023-01-29T14:32:07.266Z,100251.50
2023-01-29T14:34:18.243Z,100254.16
2023-01-29T14:36:22.760Z,100247.06
2023-01-29T14:38:28.483Z,100251.50
2023-01-29T14:40:32.740Z,100254.19
2023-01-29T14:42:55.879Z,100252.41
2023-01-29T14:44:59.792Z,100246.16
2023-01-29T14:47:01.977Z,100253.25
2023-01-29T14:49:03.983Z,100250.63
2023-01-29T14:51:11.071Z,100263.94
2023-01-29T14:53:20.026Z,100259.50
2023-01-29T14:56:03.305Z,100257.78
2023-01-29T14:58:07.349Z,100260.41
2023-01-29T15:00:27.419Z,100264.84
2023-01-29T15:02:38.373Z,100257.72
2023-01-29T15:04:50.326Z,100261.28
2023-01-29T15:07:04.585Z,100256.00
2023-01-29T15:09:36.397Z,100251.56
2023-01-29T15:11:58.962Z,100258.66
2023-01-29T15:14:16.893Z,100244.44
2023-01-29T15:16:31.441Z,100255.09
2023-01-29T15:18:37.235Z,100253.28
2023-01-29T15:20:41.642Z,100255.97
2023-01-29T15:22:44.660Z,100257.75
2023-01-29T15:25:01.998Z,100250.66
2023-01-29T15:27:04.411Z,100252.44
2023-01-29T15:29:07.433Z,100247.09
2023-01-29T15:31:17.496Z,100249.75
2023-01-29T15:33:19.884Z,100253.31
2023-01-29T15:35:34.854Z,100247.09
2023-01-29T15:37:37.985Z,100254.19
2023-01-29T15:39:45.052Z,100247.09
2023-01-29T15:41:47.982Z,100252.44
2023-01-29T15:43:56.790Z,100252.41
2023-01-29T15:46:01.934Z,100256.00
2023-01-29T15:48:15.024Z,100261.31
2023-01-29T15:50:18.135Z,100268.41
2023-01-29T15:52:26.298Z,100253.31
2023-01-29T15:54:32.818Z,100253.31
2023-01-29T15:56:39.818Z,100257.78
2023-01-29T15:58:42.931Z,100263.97
2023-01-29T16:00:53.781Z,100257.78
2023-01-29T16:02:57.281Z,100263.97
2023-01-29T16:04:59.959Z,100265.75
2023-01-29T16:07:04.124Z,100258.66
2023-01-29T16:09:07.921Z,100265.78
2023-01-29T16:11:10.767Z,100266.66
2023-01-29T16:13:22.364Z,100255.13
2023-01-29T16:15:32.505Z,100264.00
2023-01-29T16:17:37.607Z,100262.25
2023-01-29T16:19:39.788Z,100259.56
2023-01-29T16:21:46.656Z,100257.81
2023-01-29T16:23:52.103Z,100270.22
2023-01-29T16:25:56.969Z,100268.44
2023-01-29T16:27:59.227Z,100270.22
2023-01-29T16:30:02.512Z,100269.34
2023-01-29T16:32:06.598Z,100268.44
2023-01-29T16:34:27.632Z,100270.22
2023-01-29T16:36:29.845Z,100271.09
2023-01-29T16:38:34.910Z,100280.88
2023-01-29T16:40:39.044Z,100278.22
2023-01-29T16:42:45.475Z,100284.44
2023-01-29T16:45:04.451Z,100278.22
2023-01-29T16:47:16.362Z,100285.28
2023-01-29T16:49:27.109Z,100294.16
2023-01-29T16:51:38.559Z,100287.03
2023-01-29T16:53:40.745Z,100292.38
2023-01-29T16:55:50.122Z,100287.06
2023-01-29T16:57:56.762Z,100286.16
2023-01-29T17:00:02.713Z,100293.25
2023-01-29T17:02:14.632Z,100299.47
2023-01-29T17:04:19.715Z,100302.13
2023-01-29T17:06:24.995Z,100306.56
2023-01-29T17:08:33.582Z,100294.13
2023-01-29T17:10:36.407Z,100304.81
2023-01-29T17:12:39.155Z,100307.44
2023-01-29T17:14:57.091Z,100303.91
2023-01-29T17:17:05.005Z,100301.22
2023-01-29T17:19:18.479Z,100301.25
2023-01-29T17:21:20.967Z,100316.31
2023-01-29T17:23:23.745Z,100306.53
2023-01-29T17:25:26.171Z,100303.91
2023-01-29T17:27:28.846Z,100305.66
2023-01-29T17:29:31.894Z,100293.25
2023-01-29T17:31:37.107Z,100298.56
2023-01-29T17:33:43.230Z,100297.69
2023-01-29T17:35:45.840Z,100295.03
2023-01-29T17:37:47.795Z,100286.16
2023-01-29T17:39:53.146Z,100286.19
2023-01-29T17:41:58.259Z,100287.97
2023-01-29T17:44:00.381Z,100287.06
2023-01-29T17:46:02.624Z,100286.19
2023-01-29T17:48:05.831Z,100294.13
2023-01-29T17:50:21.393Z,100294.16
2023-01-29T17:52:23.291Z,100287.06
2023-01-29T17:54:25.989Z,100301.25
2023-01-29T17:56:28.232Z,100292.38
2023-01-29T17:58:30.411Z,100285.28
2023-01-29T18:00:32.521Z,100279.97
2023-01-29T18:02:34.718Z,100279.09
2023-01-29T18:04:38.600Z,100287.06
2023-01-29T18:06:42.075Z,100287.06
2023-01-29T18:08:44.214Z,100285.31
2023-01-29T18:10:47.184Z,100288.84
2023-01-29T18:12:49.268Z,100284.41
2023-01-29T18:14:51.633Z,100284.41
2023-01-29T18:16:54.712Z,100282.63
2023-01-29T18:18:58.117Z,100280.88
2023-01-29T18:21:00.601Z,100286.19
2023-01-29T18:23:04.523Z,100289.72
2023-01-29T18:25:07.217Z,100291.53
2023-01-29T18:27:09.488Z,100283.53
2023-01-29T18:29:11.564Z,100279.09
2023-01-29T18:31:14.422Z,100277.31
2023-01-29T18:33:17.935Z,100280.00
2023-01-29T18:35:20.162Z,100271.13
2023-01-29T18:37:22.132Z,100267.56
2023-01-29T18:39:24.281Z,100277.31
2023-01-29T18:41:26.402Z,100275.56
2023-01-29T18:43:28.804Z,100272.00
2023-01-29T18:45:31.515Z,100277.31
2023-01-29T18:47:33.852Z,100271.13
2023-01-29T18:49:39.149Z,100279.09
2023-01-29T18:51:41.549Z,100272.00
2023-01-29T18:53:45.362Z,100275.56
2023-01-29T18:55:59.670Z,100275.53
2023-01-29T18:58:26.818Z,100281.75
2023-01-29T19:00:24.036Z,100270.22
2023-01-29T19:02:26.381Z,100273.78
2023-01-29T19:04:28.673Z,100282.63
2023-01-29T19:06:33.837Z,100277.31
2023-01-29T19:08:36.273Z,100281.75
2023-01-29T19:10:38.480Z,100275.56
2023-01-29T19:12:42.315Z,100283.50
2023-01-29T19:14:44.508Z,100279.09
2023-01-29T19:16:48.984Z,100280.88
2023-01-29T19:18:52.652Z,100284.41
2023-01-29T19:20:55.245Z,100275.53
2023-01-29T19:22:57.610Z,100270.22
2023-01-29T19:25:00.072Z,100279.09
2023-01-29T19:27:03.252Z,100277.31
2023-01-29T19:29:05.545Z,100273.75
2023-01-29T19:31:09.484Z,100273.78
2023-01-29T19:33:11.675Z,100272.88
2023-01-29T19:35:13.909Z,100272.91
2023-01-29T19:37:16.162Z,100272.91
2023-01-29T19:39:18.287Z,100266.66
2023-01-29T19:41:20.789Z,100260.47
2023-01-29T19:43:22.878Z,100263.09
2023-01-29T19:45:49.060Z,100260.44
2023-01-29T19:47:49.308Z,100264.00
2023-01-29T19:49:51.343Z,100263.09
2023-01-29T19:51:56.179Z,100258.69
2023-01-29T19:53:58.846Z,100262.22
2023-01-29T19:56:05.440Z,100267.53
2023-01-29T19:58:07.866Z,100269.31
2023-01-29T20:00:14.936Z,100264.88
2023-01-29T20:02:17.266Z,100261.34
2023-01-29T20:04:19.421Z,100261.34
2023-01-29T20:06:25.120Z,100262.25
2023-01-29T20:08:27.341Z,100264.00
2023-01-29T20:10:29.396Z,100255.13
2023-01-29T20:12:31.427Z,100254.25
2023-01-29T20:14:33.479Z,100256.03
2023-01-29T20:16:37.184Z,100249.81
2023-01-29T20:18:39.625Z,100247.16
2023-01-29T20:20:47.048Z,100241.84
2023-01-29T20:22:49.142Z,100241.81
2023-01-29T20:24:51.119Z,100254.25
2023-01-29T20:26:53.172Z,100246.31
2023-01-29T20:28:55.238Z,100244.50
2023-01-29T20:31:00.248Z,100233.88
2023-01-29T20:33:03.848Z,100234.75
2023-01-29T20:35:10.429Z,100232.97
2023-01-29T20:37:14.664Z,100226.75
2023-01-29T20:39:17.071Z,100241.84
2023-01-29T20:41:20.064Z,100237.41
2023-01-29T20:43:23.554Z,100244.53
2023-01-29T20:45:25.803Z,100236.56
2023-01-29T20:47:28.254Z,100242.75
2023-01-29T20:49:30.311Z,100243.63
2023-01-29T20:51:32.771Z,100243.63
2023-01-29T20:53:37.469Z,100247.19
2023-01-29T20:55:40.869Z,100246.28
2023-01-29T20:57:43.211Z,100239.19
2023-01-29T20:59:45.280Z,100233.88
2023-01-29T21:01:47.357Z,100234.78
2023-01-29T21:03:49.855Z,100236.53
2023-01-29T21:05:52.424Z,100231.22
2023-01-29T21:07:54.599Z,100228.53
2023-01-29T21:09:56.541Z,100231.22
2023-01-29T21:11:58.720Z,100224.13
2023-01-29T21:14:01.987Z,100232.09
2023-01-29T21:16:04.666Z,100222.34
2023-01-29T21:18:07.243Z,100217.03
2023-01-29T21:20:10.085Z,100212.63
2023-01-29T21:22:12.210Z,100222.34
2023-01-29T21:24:15.260Z,100224.16
2023-01-29T21:26:18.683Z,100219.69
2023-01-29T21:28:20.851Z,100224.16
2023-01-29T21:30:22.917Z,100221.47
2023-01-29T21:32:24.972Z,100218.81
2023-01-29T21:34:27.213Z,100224.13
2023-01-29T21:36:29.548Z,100214.38
2023-01-29T21:38:31.981Z,100209.97
2023-01-29T21:40:34.046Z,100209.94
2023-01-29T21:42:54.623Z,100209.03
2023-01-29T21:44:56.737Z,100212.59
2023-01-29T21:46:59.443Z,100211.72
2023-01-29T21:49:01.475Z,100209.94
2023-01-29T21:51:03.863Z,100204.63
2023-01-29T21:53:06.319Z,100197.53
2023-01-29T21:55:09.019Z,100196.63
2023-01-29T21:57:15.081Z,100186.91
2023-01-29T21:59:17.319Z,100189.53
2023-01-29T22:01:37.830Z,100195.75
2023-01-29T22:03:40.686Z,100191.34
2023-01-29T22:05:44.579Z,100198.44
2023-01-29T22:07:47.305Z,100186.91
2023-01-29T22:09:50.068Z,100181.56
2023-01-29T22:11:52.444Z,100186.91
2023-01-29T22:13:54.479Z,100181.56
2023-01-29T22:15:59.496Z,100189.56
2023-01-29T22:18:01.731Z,100189.56
2023-01-29T22:20:04.352Z,100183.34
2023-01-29T22:22:07.993Z,100187.81
2023-01-29T22:24:12.632Z,100195.78
2023-01-29T22:26:14.761Z,100200.22
2023-01-29T22:28:17.710Z,100198.44
2023-01-29T22:30:20.047Z,100190.47
2023-01-29T22:32:22.510Z,100189.56
2023-01-29T22:34:24.435Z,100194.88
2023-01-29T22:36:26.380Z,100199.31
2023-01-29T22:38:29.308Z,100209.06
2023-01-29T22:40:34.395Z,100201.09
2023-01-29T22:42:36.525Z,100190.47
2023-01-29T22:44:39.137Z,100195.78
2023-01-29T22:46:41.291Z,100190.44
2023-01-29T22:48:43.552Z,100182.44
2023-01-29T22:50:53.936Z,100177.13
2023-01-29T22:52:56.501Z,100176.25
2023-01-29T22:54:58.668Z,100170.94
2023-01-29T22:57:00.832Z,100174.47
2023-01-29T22:59:03.841Z,100168.25
2023-01-29T23:01:05.770Z,100172.69
2023-01-29T23:03:07.762Z,100164.72
2023-01-29T23:05:11.883Z,100165.63
2023-01-29T23:07:13.788Z,100173.59
2023-01-29T23:09:15.848Z,100172.69
2023-01-29T23:11:20.691Z,100178.91
2023-01-29T23:13:22.761Z,100177.16
2023-01-29T23:15:24.749Z,100177.16
2023-01-29T23:17:26.832Z,100168.28
2023-01-29T23:19:31.723Z,100172.72
2023-01-29T23:21:33.945Z,100169.16
2023-01-29T23:23:37.876Z,100169.16
2023-01-29T23:25:58.761Z,100163.84
2023-01-29T23:28:00.877Z,100169.19
2023-01-29T23:30:02.848Z,100179.84
2023-01-29T23:32:05.229Z,100177.19
2023-01-29T23:34:07.393Z,100181.59
2023-01-29T23:36:09.973Z,100165.63
2023-01-29T23:38:12.101Z,100169.19
2023-01-29T23:40:14.612Z,100164.75
2023-01-29T23:42:16.794Z,100157.63
2023-01-29T23:44:19.938Z,100156.78
2023-01-29T23:46:22.202Z,100153.25
2023-01-29T23:48:24.548Z,100147.91
2023-01-29T23:50:26.758Z,100147.03
2023-01-29T23:52:28.900Z,100147.88
2023-01-29T23:54:31.066Z,100141.69
2023-01-29T23:56:33.169Z,100129.28
2023-01-29T23:58:35.371Z,100118.63
